KCLK/CLK METAR and TAF weather

Enter ICAO airport designator
Station Type Date Time Source
KCLK METAR 2022/01/26 19:55 UTC NOAA

KCLK 261955Z AUTO 15005KT 7SM -SN BKN029 OVC035 M02/M15 A3030 RMK AO2


Station Type Date Time Source
KCLK Decoded METAR 2022/01/26 19:55 UTC NOAA

Clinton, Clinton Regional Airport, OK, United States (KCLK) 35-32-17N 098-55-17W
Jan 26, 2022 - 02:55 PM EST / 2022.01.26 1955 UTC
Wind: from the SSE (150 degrees) at 6 MPH (5 KT):0
Visibility: 7 mile(s):0
Sky conditions: overcast
Weather: light snow
Temperature: 28 F (-2 C)
Windchill: 21 F (-6 C):1
Dew Point: 5 F (-15 C)
Relative Humidity: 36%
Pressure (altimeter): 30.3 in. Hg (1026 hPa)
ob: KCLK 261955Z AUTO 15005KT 7SM -SN BKN029 OVC035 M02/M15 A3030 RMK AO2
cycle: 20

Station Type Date Time Source
KCLK TAF UTC NOAA

Error!

Example: see airport list